createdAt,value
2018-06-28T00:00:33.779Z,59.30
2018-06-28T00:03:02.384Z,60.50
2018-06-28T00:05:30.887Z,61.30
2018-06-28T00:07:59.386Z,60.90
2018-06-28T00:10:27.916Z,61.00
2018-06-28T00:12:56.404Z,60.00
2018-06-28T00:15:24.922Z,61.90
2018-06-28T00:17:53.417Z,61.50
2018-06-28T00:20:21.991Z,61.70
2018-06-28T00:22:50.524Z,61.60
2018-06-28T00:25:19.003Z,62.70
2018-06-28T00:30:15.667Z,63.10
2018-06-28T00:32:44.159Z,63.00
2018-06-28T00:37:40.807Z,63.00
2018-06-28T00:40:09.311Z,64.10
2018-06-28T00:42:37.777Z,63.50
2018-06-28T00:45:06.328Z,61.80
2018-06-28T00:47:34.846Z,62.40
2018-06-28T00:50:03.419Z,63.40
2018-06-28T00:52:31.931Z,63.00
2018-06-28T00:57:28.677Z,64.00
2018-06-28T00:59:57.193Z,64.40
2018-06-28T01:04:53.957Z,65.50
2018-06-28T01:07:22.459Z,65.50
2018-06-28T01:09:50.964Z,65.70
2018-06-28T01:12:19.482Z,65.70
2018-06-28T01:14:47.991Z,65.60
2018-06-28T01:22:12.830Z,67.30
2018-06-28T01:24:41.326Z,67.20
2018-06-28T01:27:09.868Z,66.50
2018-06-28T01:29:38.610Z,66.90
2018-06-28T01:32:07.095Z,67.20
2018-06-28T01:37:03.849Z,68.90
2018-06-28T01:39:32.357Z,69.20
2018-06-28T01:42:11.918Z,69.80
2018-06-28T01:44:40.400Z,69.80
2018-06-28T01:47:08.911Z,69.40
2018-06-28T01:49:37.472Z,69.50
2018-06-28T01:52:05.950Z,69.00
2018-06-28T01:54:34.456Z,69.20
2018-06-28T01:57:02.956Z,68.50
2018-06-28T01:59:31.428Z,68.00
2018-06-28T02:01:59.946Z,68.10
2018-06-28T02:04:28.433Z,66.50
2018-06-28T02:06:56.966Z,67.20
2018-06-28T02:09:25.501Z,67.60
2018-06-28T02:11:54.031Z,68.70
2018-06-28T02:14:22.503Z,68.90
2018-06-28T02:19:19.142Z,69.80
2018-06-28T02:21:47.646Z,69.90
2018-06-28T02:24:16.133Z,70.50
2018-06-28T02:31:40.987Z,72.20
2018-06-28T02:34:09.489Z,72.80
2018-06-28T02:36:38.000Z,73.40
2018-06-28T02:39:08.169Z,73.10
2018-06-28T02:41:36.665Z,73.10
2018-06-28T02:46:33.636Z,71.80
2018-06-28T02:51:30.336Z,70.80
2018-06-28T02:53:58.835Z,71.30
2018-06-28T02:56:27.312Z,69.30
2018-06-28T02:58:55.841Z,69.50
2018-06-28T03:01:24.318Z,69.20
2018-06-28T03:03:52.851Z,68.80
2018-06-28T03:06:21.328Z,68.60
2018-06-28T03:08:49.814Z,67.90
2018-06-28T03:11:18.352Z,68.20
2018-06-28T03:13:46.832Z,68.50
2018-06-28T03:16:15.339Z,68.50
2018-06-28T03:18:44.149Z,68.70
2018-06-28T03:23:40.847Z,69.20
2018-06-28T03:26:09.339Z,69.80
2018-06-28T03:31:07.075Z,71.10
2018-06-28T03:33:35.500Z,71.80
2018-06-28T03:36:04.081Z,72.40
2018-06-28T03:38:32.607Z,72.50
2018-06-28T03:41:01.069Z,71.80
2018-06-28T03:43:29.632Z,72.30
2018-06-28T03:45:58.121Z,73.20
2018-06-28T03:48:26.605Z,72.60
2018-06-28T03:50:55.132Z,71.30
2018-06-28T03:53:23.621Z,72.20
2018-06-28T03:55:52.135Z,72.50
2018-06-28T03:58:20.650Z,73.20
2018-06-28T04:00:49.144Z,73.50
2018-06-28T04:03:17.632Z,74.40
2018-06-28T04:05:46.119Z,74.90
2018-06-28T04:08:14.569Z,74.70
2018-06-28T04:10:43.120Z,74.60
2018-06-28T04:13:11.616Z,74.30
2018-06-28T04:15:40.091Z,74.00
2018-06-28T04:18:08.597Z,74.50
2018-06-28T04:20:37.072Z,75.20
2018-06-28T04:23:05.622Z,75.60
2018-06-28T04:25:34.140Z,77.20
2018-06-28T04:28:02.612Z,76.40
2018-06-28T04:30:31.126Z,77.10
2018-06-28T04:32:59.607Z,77.20
2018-06-28T04:35:28.124Z,77.50
2018-06-28T04:40:24.774Z,78.50
2018-06-28T04:42:53.319Z,78.70
2018-06-28T04:45:21.840Z,78.30
2018-06-28T04:47:50.319Z,78.80
2018-06-28T04:50:18.838Z,79.30
2018-06-28T04:55:15.475Z,80.20
2018-06-28T04:57:43.968Z,79.40
2018-06-28T05:00:12.500Z,79.00
2018-06-28T05:02:40.992Z,79.00
2018-06-28T05:05:10.912Z,78.60
2018-06-28T05:07:39.405Z,78.20
2018-06-28T05:10:07.901Z,78.60
2018-06-28T05:12:36.423Z,78.50
2018-06-28T05:17:33.134Z,77.20
2018-06-28T05:20:01.686Z,77.40
2018-06-28T05:22:30.171Z,78.40
2018-06-28T05:24:58.879Z,79.50
2018-06-28T05:27:27.375Z,79.10
2018-06-28T05:29:55.872Z,79.40
2018-06-28T05:32:24.437Z,79.70
2018-06-28T05:34:52.987Z,79.60
2018-06-28T05:37:21.431Z,80.00
2018-06-28T05:39:49.982Z,81.30
2018-06-28T05:42:18.481Z,81.80
2018-06-28T05:44:46.959Z,81.90
2018-06-28T05:47:15.507Z,82.60
2018-06-28T05:49:44.013Z,83.20
2018-06-28T05:52:12.578Z,80.40
2018-06-28T05:54:41.084Z,77.60
2018-06-28T05:59:37.761Z,73.60
2018-06-28T06:04:34.539Z,71.10
2018-06-28T06:07:03.081Z,70.30
2018-06-28T06:09:31.562Z,69.40
2018-06-28T06:12:00.105Z,68.40
2018-06-28T06:14:28.600Z,67.00
2018-06-28T06:16:57.092Z,65.70
2018-06-28T06:19:25.593Z,62.90
2018-06-28T06:21:54.087Z,65.50
2018-06-28T06:24:22.560Z,66.30
2018-06-28T06:26:51.056Z,66.80
2018-06-28T06:29:19.612Z,65.60
2018-06-28T06:31:48.107Z,62.70
2018-06-28T06:34:16.606Z,62.40
2018-06-28T06:36:45.127Z,62.90
2018-06-28T06:39:13.631Z,64.30
2018-06-28T06:41:42.170Z,60.20
2018-06-28T06:44:10.692Z,59.50
2018-06-28T06:46:39.246Z,60.40
2018-06-28T06:49:07.728Z,55.70
2018-06-28T06:51:36.284Z,57.20
2018-06-28T06:54:04.830Z,55.90
2018-06-28T06:56:33.308Z,56.10
2018-06-28T06:59:01.839Z,57.20
2018-06-28T07:01:30.333Z,57.90
2018-06-28T07:03:58.830Z,55.50
2018-06-28T07:06:27.333Z,56.20
2018-06-28T07:08:55.823Z,56.10
2018-06-28T07:11:24.403Z,56.10
2018-06-28T07:13:52.957Z,56.60
2018-06-28T07:16:21.443Z,56.90
2018-06-28T07:18:49.953Z,55.00
2018-06-28T07:21:18.507Z,56.00
2018-06-28T07:23:47.031Z,56.30
2018-06-28T07:26:15.523Z,56.00
2018-06-28T07:28:44.119Z,56.60
2018-06-28T07:31:12.579Z,57.70
2018-06-28T07:33:41.066Z,54.20
2018-06-28T07:36:09.588Z,55.10
2018-06-28T07:38:38.070Z,56.30
2018-06-28T07:41:06.586Z,53.90
2018-06-28T07:43:35.102Z,52.70
2018-06-28T07:46:03.665Z,52.10
2018-06-28T07:51:00.342Z,55.40
2018-06-28T07:53:28.902Z,54.30
2018-06-28T07:55:57.455Z,53.60
2018-06-28T07:58:26.182Z,53.30
2018-06-28T08:00:54.695Z,52.90
2018-06-28T08:03:23.216Z,53.10
2018-06-28T08:05:51.731Z,53.30
2018-06-28T08:08:20.291Z,54.90
2018-06-28T08:10:49.135Z,54.40
2018-06-28T08:13:17.627Z,53.30
2018-06-28T08:15:46.162Z,51.90
2018-06-28T08:18:14.669Z,52.00
2018-06-28T08:20:43.149Z,50.80
2018-06-28T08:23:11.643Z,50.20
2018-06-28T08:25:40.165Z,54.20
2018-06-28T08:28:08.668Z,52.50
2018-06-28T08:30:37.145Z,50.40
2018-06-28T08:33:05.796Z,50.50
2018-06-28T08:35:34.345Z,51.30
2018-06-28T08:38:02.819Z,51.70
2018-06-28T08:40:31.357Z,51.90
2018-06-28T08:45:27.995Z,53.60
2018-06-28T08:47:56.509Z,48.20
2018-06-28T08:50:25.019Z,47.30
2018-06-28T08:52:53.544Z,48.30
2018-06-28T08:55:22.067Z,47.70
2018-06-28T09:00:18.809Z,49.90
2018-06-28T09:02:47.325Z,49.10
2018-06-28T09:10:12.181Z,44.20
2018-06-28T09:12:40.709Z,43.40
2018-06-28T09:15:09.187Z,44.00
2018-06-28T09:17:37.716Z,44.90
2018-06-28T09:20:06.609Z,44.30
2018-06-28T09:22:35.564Z,43.40
2018-06-28T09:25:04.590Z,44.60
2018-06-28T09:27:33.144Z,44.40
2018-06-28T09:30:01.629Z,42.90
2018-06-28T09:32:30.110Z,42.60
2018-06-28T09:34:58.760Z,45.90
2018-06-28T09:37:27.341Z,44.70
2018-06-28T09:39:55.856Z,41.80
2018-06-28T09:42:24.364Z,42.60
2018-06-28T09:44:52.872Z,41.10
2018-06-28T09:47:21.362Z,40.60
2018-06-28T09:49:49.900Z,43.20
2018-06-28T09:52:18.396Z,41.20
2018-06-28T09:54:46.923Z,41.70
2018-06-28T09:57:15.421Z,43.60
2018-06-28T09:59:43.921Z,42.40
2018-06-28T10:02:12.429Z,40.40
2018-06-28T10:07:12.083Z,41.70
2018-06-28T10:09:40.573Z,41.30
2018-06-28T10:12:09.131Z,41.30
2018-06-28T10:14:37.647Z,40.30
2018-06-28T10:17:06.595Z,38.70
2018-06-28T10:22:03.315Z,40.50
2018-06-28T10:24:31.972Z,40.00
2018-06-28T10:29:28.682Z,39.80
2018-06-28T10:31:57.415Z,40.70
2018-06-28T10:39:22.284Z,40.40
2018-06-28T10:41:50.783Z,39.60
2018-06-28T10:44:19.277Z,40.40
2018-06-28T10:46:47.934Z,39.30
2018-06-28T10:49:16.436Z,41.00
2018-06-28T10:51:44.988Z,42.80
2018-06-28T10:56:41.692Z,42.00
2018-06-28T10:59:10.224Z,42.90
2018-06-28T11:01:38.760Z,42.50
2018-06-28T11:04:07.240Z,43.40
2018-06-28T11:06:35.754Z,44.00
2018-06-28T11:09:06.802Z,42.30
2018-06-28T11:11:35.320Z,43.60
2018-06-28T11:14:04.234Z,43.50
2018-06-28T11:16:32.777Z,44.10
2018-06-28T11:19:01.293Z,43.50
2018-06-28T11:23:57.954Z,43.50
2018-06-28T11:26:26.564Z,47.00
2018-06-28T11:28:55.080Z,42.80
2018-06-28T11:31:23.605Z,44.00
2018-06-28T11:33:52.109Z,43.10
2018-06-28T11:38:49.005Z,45.50
2018-06-28T11:41:17.501Z,44.30
2018-06-28T11:43:46.111Z,45.30
2018-06-28T11:46:14.641Z,44.60
2018-06-28T11:48:43.160Z,45.60
2018-06-28T11:51:11.697Z,46.10
2018-06-28T11:53:40.322Z,47.60
2018-06-28T11:56:08.821Z,47.00
2018-06-28T11:58:37.318Z,46.10
2018-06-28T12:01:05.865Z,46.40
2018-06-28T12:06:02.598Z,48.20
2018-06-28T12:08:31.097Z,47.60
2018-06-28T12:10:59.612Z,47.50
2018-06-28T12:13:28.149Z,46.60
2018-06-28T12:15:56.665Z,46.20
2018-06-28T12:20:53.339Z,46.30
2018-06-28T12:25:50.121Z,46.80
2018-06-28T12:28:18.599Z,47.30
2018-06-28T12:30:47.089Z,49.10
2018-06-28T12:33:15.627Z,49.30
2018-06-28T12:35:44.122Z,48.70
2018-06-28T12:38:12.687Z,49.20
2018-06-28T12:40:41.220Z,48.10
2018-06-28T12:43:09.705Z,48.50
2018-06-28T12:50:35.536Z,50.40
2018-06-28T12:53:05.190Z,48.90
2018-06-28T12:56:41.738Z,49.60
2018-06-28T12:59:11.576Z,49.60
2018-06-28T13:01:40.096Z,51.00
2018-06-28T13:04:08.616Z,50.50
2018-06-28T13:06:37.248Z,50.30
2018-06-28T13:09:10.431Z,50.50
2018-06-28T13:11:38.972Z,50.70
2018-06-28T13:14:07.749Z,50.10
2018-06-28T13:16:36.319Z,50.10
2018-06-28T13:19:04.862Z,50.30
2018-06-28T13:21:33.417Z,50.30
2018-06-28T13:24:01.943Z,50.80
2018-06-28T13:26:30.481Z,50.90
2018-06-28T13:28:58.977Z,50.80
2018-06-28T13:31:27.488Z,51.40
2018-06-28T13:33:56.295Z,52.30
2018-06-28T13:36:24.820Z,52.30
2018-06-28T13:38:53.325Z,51.80
2018-06-28T13:41:22.095Z,51.30
2018-06-28T13:43:50.358Z,51.70
2018-06-28T13:46:18.956Z,52.80
2018-06-28T13:48:47.459Z,52.30
2018-06-28T13:51:15.967Z,51.80
2018-06-28T13:53:44.479Z,52.60
2018-06-28T13:56:12.968Z,51.70
2018-06-28T13:58:41.493Z,52.00
2018-06-28T14:01:10.009Z,50.40
2018-06-28T14:06:06.722Z,49.80
2018-06-28T14:08:35.202Z,49.10
2018-06-28T14:11:03.675Z,47.50
2018-06-28T14:13:32.155Z,48.20
2018-06-28T14:16:00.721Z,48.40
2018-06-28T14:18:29.385Z,48.20
2018-06-28T14:20:57.866Z,48.60
2018-06-28T14:23:26.360Z,49.00
2018-06-28T14:25:54.920Z,49.20
2018-06-28T14:28:23.418Z,50.20
2018-06-28T14:30:51.926Z,50.40
2018-06-28T14:33:20.459Z,50.40
2018-06-28T14:35:48.958Z,49.90
2018-06-28T14:38:17.490Z,50.00
2018-06-28T14:40:46.019Z,49.50
2018-06-28T14:43:14.566Z,50.40
2018-06-28T14:45:43.103Z,51.10
2018-06-28T14:48:11.586Z,51.70
2018-06-28T14:50:40.161Z,50.80
2018-06-28T14:53:08.664Z,51.30
2018-06-28T14:55:37.118Z,50.00
2018-06-28T15:00:33.849Z,50.00
2018-06-28T15:03:02.360Z,50.30
2018-06-28T15:07:59.027Z,49.30
2018-06-28T15:10:27.535Z,50.10
2018-06-28T15:12:56.041Z,50.50
2018-06-28T15:15:24.635Z,50.80
2018-06-28T15:17:53.068Z,51.60
2018-06-28T15:20:21.567Z,49.80
2018-06-28T15:25:18.249Z,49.70
2018-06-28T15:27:46.871Z,49.80
2018-06-28T15:30:15.432Z,51.50
2018-06-28T15:32:43.941Z,50.60
2018-06-28T15:35:12.453Z,51.00
2018-06-28T15:37:40.969Z,50.50
2018-06-28T15:40:09.483Z,50.10
2018-06-28T15:42:37.968Z,50.50
2018-06-28T15:45:06.527Z,51.10
2018-06-28T15:50:03.193Z,50.40
2018-06-28T15:52:31.851Z,50.40
2018-06-28T15:55:00.400Z,51.50
2018-06-28T15:57:28.917Z,51.20
2018-06-28T15:59:57.415Z,50.90
2018-06-28T16:02:25.915Z,50.60
2018-06-28T16:07:22.679Z,50.10
2018-06-28T16:12:19.330Z,51.10
2018-06-28T16:14:47.862Z,52.20
2018-06-28T16:17:16.394Z,51.90
2018-06-28T16:19:44.850Z,52.10
2018-06-28T16:22:13.382Z,51.80
2018-06-28T16:24:41.920Z,53.00
2018-06-28T16:27:10.428Z,53.40
2018-06-28T16:29:38.908Z,52.90
2018-06-28T16:32:07.447Z,54.20
2018-06-28T16:34:35.943Z,53.50
2018-06-28T16:37:04.464Z,54.10
2018-06-28T16:39:32.978Z,54.10
2018-06-28T16:42:01.482Z,54.30
2018-06-28T16:49:26.329Z,54.30
2018-06-28T16:51:54.821Z,54.40
2018-06-28T16:59:19.703Z,54.60
2018-06-28T17:01:48.196Z,54.90
2018-06-28T17:04:16.972Z,54.90
2018-06-28T17:06:45.492Z,54.90
2018-06-28T17:09:13.994Z,55.80
2018-06-28T17:11:42.506Z,56.10
2018-06-28T17:14:10.989Z,55.50
2018-06-28T17:16:39.525Z,56.10
2018-06-28T17:19:08.050Z,56.80
2018-06-28T17:24:04.821Z,56.00
2018-06-28T17:29:01.532Z,57.00
2018-06-28T17:31:30.021Z,57.30
2018-06-28T17:33:58.533Z,57.80
2018-06-28T17:36:27.068Z,57.30
2018-06-28T17:38:55.562Z,57.00
2018-06-28T17:41:24.082Z,56.70
2018-06-28T17:43:52.575Z,56.50
2018-06-28T17:46:21.082Z,56.40
2018-06-28T17:51:17.736Z,57.20
2018-06-28T17:53:46.260Z,56.70
2018-06-28T17:56:14.812Z,56.40
2018-06-28T17:58:43.344Z,56.30
2018-06-28T18:01:11.881Z,56.50
2018-06-28T18:03:40.396Z,56.40
2018-06-28T18:06:08.906Z,57.30
2018-06-28T18:08:37.445Z,56.10
2018-06-28T18:11:05.957Z,56.10
2018-06-28T18:13:34.491Z,56.00
2018-06-28T18:16:03.004Z,56.90
2018-06-28T18:18:31.572Z,56.10
2018-06-28T18:21:00.073Z,57.00
2018-06-28T18:23:28.613Z,56.90
2018-06-28T18:25:57.461Z,56.50
2018-06-28T18:28:25.976Z,57.00
2018-06-28T18:30:54.503Z,56.60
2018-06-28T18:33:23.009Z,57.30
2018-06-28T18:35:51.515Z,57.50
2018-06-28T18:43:16.396Z,57.80
2018-06-28T18:45:44.965Z,57.20
2018-06-28T18:48:13.464Z,57.40
2018-06-28T18:50:42.069Z,58.10
2018-06-28T18:55:38.733Z,58.40
2018-06-28T18:58:07.254Z,58.10
2018-06-28T19:00:35.793Z,58.60
2018-06-28T19:03:04.349Z,58.40
2018-06-28T19:05:32.889Z,58.40
2018-06-28T19:08:01.417Z,58.60
2018-06-28T19:13:09.935Z,59.10
2018-06-28T19:15:43.857Z,58.70
2018-06-28T19:18:12.384Z,59.00
2018-06-28T19:20:43.061Z,61.90
2018-06-28T19:23:16.731Z,61.30
2018-06-28T19:25:45.183Z,62.60
2018-06-28T19:28:13.674Z,62.80
2018-06-28T19:30:47.465Z,62.40
2018-06-28T19:35:44.237Z,62.40
2018-06-28T19:38:12.701Z,62.40
2018-06-28T19:40:46.439Z,62.70
2018-06-28T19:43:14.936Z,62.10
2018-06-28T19:45:43.440Z,62.80
2018-06-28T19:48:11.966Z,63.20
2018-06-28T19:50:45.956Z,63.10
2018-06-28T19:53:15.791Z,63.70
2018-06-28T19:55:44.280Z,64.40
2018-06-28T19:58:12.819Z,63.60
2018-06-28T20:00:46.628Z,64.60
2018-06-28T20:03:20.548Z,65.20
2018-06-28T20:05:49.067Z,64.50
2018-06-28T20:08:17.563Z,64.90
2018-06-28T20:10:46.083Z,65.80
2018-06-28T20:13:19.959Z,65.60
2018-06-28T20:18:28.000Z,67.10
2018-06-28T20:20:57.966Z,67.20
2018-06-28T20:23:26.391Z,67.20
2018-06-28T20:28:28.331Z,68.00
2018-06-28T20:31:02.078Z,68.10
2018-06-28T20:36:04.114Z,69.40
2018-06-28T20:38:32.639Z,70.50
2018-06-28T20:41:01.147Z,70.40
2018-06-28T20:43:29.684Z,69.90
2018-06-28T20:45:58.241Z,71.60
2018-06-28T20:48:27.016Z,71.10
2018-06-28T20:50:55.610Z,71.10
2018-06-28T20:53:24.103Z,71.10
2018-06-28T20:55:52.709Z,71.90
2018-06-28T20:58:21.205Z,71.40
2018-06-28T21:00:49.718Z,71.00
2018-06-28T21:03:18.234Z,71.40
2018-06-28T21:05:46.757Z,71.00
2018-06-28T21:08:15.240Z,71.10
2018-06-28T21:10:43.835Z,71.70
2018-06-28T21:13:12.373Z,71.50
2018-06-28T21:15:40.915Z,72.40
2018-06-28T21:18:09.403Z,72.40
2018-06-28T21:20:37.921Z,71.70
2018-06-28T21:23:06.431Z,71.40
2018-06-28T21:25:34.904Z,71.90
2018-06-28T21:30:31.601Z,71.20
2018-06-28T21:33:00.093Z,70.20
2018-06-28T21:35:28.607Z,70.30
2018-06-28T21:37:57.140Z,70.20
2018-06-28T21:40:25.611Z,70.80
2018-06-28T21:45:22.277Z,71.70
2018-06-28T21:47:50.780Z,70.80
2018-06-28T21:50:19.305Z,71.30
2018-06-28T21:52:47.820Z,71.60
2018-06-28T21:55:16.466Z,71.80
2018-06-28T21:57:44.909Z,72.50
2018-06-28T22:02:57.039Z,73.80
2018-06-28T22:05:25.569Z,72.10
2018-06-28T22:07:54.492Z,71.30
2018-06-28T22:10:22.996Z,70.80
2018-06-28T22:15:24.845Z,71.30
2018-06-28T22:17:55.299Z,71.10
2018-06-28T22:25:20.912Z,71.10
2018-06-28T22:27:49.453Z,71.50
2018-06-28T22:30:18.018Z,71.40
2018-06-28T22:32:46.565Z,72.00
2018-06-28T22:35:15.247Z,71.90
2018-06-28T22:37:44.319Z,71.90
2018-06-28T22:45:09.860Z,72.60
2018-06-28T22:47:38.380Z,72.70
2018-06-28T22:50:06.952Z,73.20
2018-06-28T22:52:35.586Z,72.70
2018-06-28T22:55:04.380Z,72.70
2018-06-28T22:57:32.870Z,72.80
2018-06-28T23:00:01.397Z,72.60
2018-06-28T23:09:54.496Z,73.10
2018-06-28T23:12:23.051Z,73.40
2018-06-28T23:14:51.587Z,73.30
2018-06-28T23:17:20.114Z,73.30
2018-06-28T23:19:48.656Z,74.40
2018-06-28T23:22:54.412Z,74.30
2018-06-28T23:25:23.022Z,75.20
2018-06-28T23:27:52.003Z,75.90
2018-06-28T23:30:20.577Z,77.10
2018-06-28T23:32:49.138Z,77.80
2018-06-28T23:35:17.689Z,78.20
2018-06-28T23:37:46.253Z,78.50
2018-06-28T23:40:14.768Z,78.80
2018-06-28T23:42:43.299Z,78.80
2018-06-28T23:45:11.840Z,78.90
2018-06-28T23:47:40.410Z,78.80
2018-06-28T23:50:09.665Z,77.90
2018-06-28T23:52:38.259Z,78.30
2018-06-28T23:55:07.388Z,78.80
